sensor_id;sensor_type;location;lat;lon;timestamp;temperature;humidity
48998;DHT22;34807;51.456;7.244;2023-05-29T00:00:31;17.70;69.50
48998;DHT22;34807;51.456;7.244;2023-05-29T00:02:57;17.60;69.30
48998;DHT22;34807;51.456;7.244;2023-05-29T00:05:23;17.60;69.60
48998;DHT22;34807;51.456;7.244;2023-05-29T00:07:49;17.60;69.50
48998;DHT22;34807;51.456;7.244;2023-05-29T00:10:15;17.50;69.40
48998;DHT22;34807;51.456;7.244;2023-05-29T00:12:41;17.50;69.60
48998;DHT22;34807;51.456;7.244;2023-05-29T00:15:07;17.40;69.60
48998;DHT22;34807;51.456;7.244;2023-05-29T00:17:33;17.40;69.80
48998;DHT22;34807;51.456;7.244;2023-05-29T00:19:59;17.40;69.80
48998;DHT22;34807;51.456;7.244;2023-05-29T00:22:24;17.40;69.70
48998;DHT22;34807;51.456;7.244;2023-05-29T00:24:51;17.30;69.80
48998;DHT22;34807;51.456;7.244;2023-05-29T00:27:17;17.30;69.90
48998;DHT22;34807;51.456;7.244;2023-05-29T00:29:43;17.30;69.90
48998;DHT22;34807;51.456;7.244;2023-05-29T00:32:09;17.20;69.90
48998;DHT22;34807;51.456;7.244;2023-05-29T00:34:34;17.20;69.90
48998;DHT22;34807;51.456;7.244;2023-05-29T00:37:00;17.20;70.00
48998;DHT22;34807;51.456;7.244;2023-05-29T00:39:26;17.10;70.00
48998;DHT22;34807;51.456;7.244;2023-05-29T00:41:52;17.20;70.10
48998;DHT22;34807;51.456;7.244;2023-05-29T00:44:18;17.10;70.20
48998;DHT22;34807;51.456;7.244;2023-05-29T00:46:44;17.00;70.30
48998;DHT22;34807;51.456;7.244;2023-05-29T00:49:09;17.00;70.50
48998;DHT22;34807;51.456;7.244;2023-05-29T00:51:36;17.00;70.30
48998;DHT22;34807;51.456;7.244;2023-05-29T00:54:02;17.00;70.50
48998;DHT22;34807;51.456;7.244;2023-05-29T00:56:29;16.90;70.40
48998;DHT22;34807;51.456;7.244;2023-05-29T00:58:55;16.90;70.50
48998;DHT22;34807;51.456;7.244;2023-05-29T01:01:20;16.90;70.40
48998;DHT22;34807;51.456;7.244;2023-05-29T01:03:49;16.90;70.90
48998;DHT22;34807;51.456;7.244;2023-05-29T01:06:15;16.80;71.20
48998;DHT22;34807;51.456;7.244;2023-05-29T01:08:41;16.80;70.80
48998;DHT22;34807;51.456;7.244;2023-05-29T01:11:13;16.80;70.50
48998;DHT22;34807;51.456;7.244;2023-05-29T01:13:40;16.70;71.10
48998;DHT22;34807;51.456;7.244;2023-05-29T01:16:54;16.70;70.90
48998;DHT22;34807;51.456;7.244;2023-05-29T01:19:00;16.70;71.20
48998;DHT22;34807;51.456;7.244;2023-05-29T01:24:20;16.60;71.40
48998;DHT22;34807;51.456;7.244;2023-05-29T01:27:00;16.60;70.70
48998;DHT22;34807;51.456;7.244;2023-05-29T01:29:29;16.60;71.10
48998;DHT22;34807;51.456;7.244;2023-05-29T01:31:58;16.60;71.30
48998;DHT22;34807;51.456;7.244;2023-05-29T01:34:23;16.60;71.30
48998;DHT22;34807;51.456;7.244;2023-05-29T01:36:49;16.50;71.10
48998;DHT22;34807;51.456;7.244;2023-05-29T01:39:15;16.50;71.20
48998;DHT22;34807;51.456;7.244;2023-05-29T01:41:41;16.40;71.50
48998;DHT22;34807;51.456;7.244;2023-05-29T01:44:07;16.40;71.30
48998;DHT22;34807;51.456;7.244;2023-05-29T01:46:37;16.40;71.40
48998;DHT22;34807;51.456;7.244;2023-05-29T01:49:03;16.30;71.80
48998;DHT22;34807;51.456;7.244;2023-05-29T01:51:29;16.30;71.40
48998;DHT22;34807;51.456;7.244;2023-05-29T01:53:57;16.30;71.70
48998;DHT22;34807;51.456;7.244;2023-05-29T01:56:22;16.30;71.50
48998;DHT22;34807;51.456;7.244;2023-05-29T01:58:48;16.20;71.40
48998;DHT22;34807;51.456;7.244;2023-05-29T02:01:15;16.20;71.40
48998;DHT22;34807;51.456;7.244;2023-05-29T02:03:41;16.20;71.40
48998;DHT22;34807;51.456;7.244;2023-05-29T02:06:07;16.20;71.60
48998;DHT22;34807;51.456;7.244;2023-05-29T02:08:32;16.10;72.00
48998;DHT22;34807;51.456;7.244;2023-05-29T02:10:58;16.10;72.00
48998;DHT22;34807;51.456;7.244;2023-05-29T02:13:23;16.10;71.50
48998;DHT22;34807;51.456;7.244;2023-05-29T02:15:49;16.00;72.00
48998;DHT22;34807;51.456;7.244;2023-05-29T02:18:14;16.00;72.00
48998;DHT22;34807;51.456;7.244;2023-05-29T02:20:40;16.00;71.80
48998;DHT22;34807;51.456;7.244;2023-05-29T02:23:08;16.00;71.50
48998;DHT22;34807;51.456;7.244;2023-05-29T02:25:33;16.00;72.00
48998;DHT22;34807;51.456;7.244;2023-05-29T02:27:59;15.90;71.90
48998;DHT22;34807;51.456;7.244;2023-05-29T02:30:24;15.90;72.30
48998;DHT22;34807;51.456;7.244;2023-05-29T02:32:50;15.90;72.30
48998;DHT22;34807;51.456;7.244;2023-05-29T02:35:16;15.80;72.40
48998;DHT22;34807;51.456;7.244;2023-05-29T02:37:43;15.80;72.30
48998;DHT22;34807;51.456;7.244;2023-05-29T02:40:09;15.80;72.00
48998;DHT22;34807;51.456;7.244;2023-05-29T02:42:35;15.80;72.50
48998;DHT22;34807;51.456;7.244;2023-05-29T02:45:00;15.70;72.50
48998;DHT22;34807;51.456;7.244;2023-05-29T02:47:26;15.80;72.00
48998;DHT22;34807;51.456;7.244;2023-05-29T02:49:51;15.70;72.40
48998;DHT22;34807;51.456;7.244;2023-05-29T02:52:17;15.70;72.20
48998;DHT22;34807;51.456;7.244;2023-05-29T02:54:42;15.60;72.30
48998;DHT22;34807;51.456;7.244;2023-05-29T02:57:08;15.60;72.80
48998;DHT22;34807;51.456;7.244;2023-05-29T02:59:34;15.60;72.70
48998;DHT22;34807;51.456;7.244;2023-05-29T03:02:00;15.60;72.30
48998;DHT22;34807;51.456;7.244;2023-05-29T03:04:26;15.50;72.50
48998;DHT22;34807;51.456;7.244;2023-05-29T03:06:52;15.50;72.60
48998;DHT22;34807;51.456;7.244;2023-05-29T03:09:18;15.50;72.70
48998;DHT22;34807;51.456;7.244;2023-05-29T03:11:43;15.50;72.70
48998;DHT22;34807;51.456;7.244;2023-05-29T03:14:10;15.50;72.70
48998;DHT22;34807;51.456;7.244;2023-05-29T03:16:35;15.50;72.40
48998;DHT22;34807;51.456;7.244;2023-05-29T03:19:01;15.40;72.70
48998;DHT22;34807;51.456;7.244;2023-05-29T03:21:26;15.40;72.90
48998;DHT22;34807;51.456;7.244;2023-05-29T03:23:52;15.40;72.70
48998;DHT22;34807;51.456;7.244;2023-05-29T03:26:17;15.40;72.90
48998;DHT22;34807;51.456;7.244;2023-05-29T03:28:43;15.40;73.10
48998;DHT22;34807;51.456;7.244;2023-05-29T03:31:08;15.30;72.80
48998;DHT22;34807;51.456;7.244;2023-05-29T03:33:37;15.30;73.10
48998;DHT22;34807;51.456;7.244;2023-05-29T03:36:02;15.30;73.10
48998;DHT22;34807;51.456;7.244;2023-05-29T03:38:28;15.30;73.30
48998;DHT22;34807;51.456;7.244;2023-05-29T03:40:53;15.20;73.00
48998;DHT22;34807;51.456;7.244;2023-05-29T03:43:19;15.20;73.30
48998;DHT22;34807;51.456;7.244;2023-05-29T03:45:44;15.20;73.30
48998;DHT22;34807;51.456;7.244;2023-05-29T03:48:10;15.20;73.40
48998;DHT22;34807;51.456;7.244;2023-05-29T03:50:35;15.10;73.90
48998;DHT22;34807;51.456;7.244;2023-05-29T03:53:01;15.20;73.40
48998;DHT22;34807;51.456;7.244;2023-05-29T03:55:26;15.20;73.30
48998;DHT22;34807;51.456;7.244;2023-05-29T03:57:53;15.10;73.50
48998;DHT22;34807;51.456;7.244;2023-05-29T04:00:19;15.10;73.60
48998;DHT22;34807;51.456;7.244;2023-05-29T04:02:44;15.10;73.40
48998;DHT22;34807;51.456;7.244;2023-05-29T04:05:10;15.10;74.10
48998;DHT22;34807;51.456;7.244;2023-05-29T04:07:35;15.00;73.40
48998;DHT22;34807;51.456;7.244;2023-05-29T04:10:04;15.00;73.70
48998;DHT22;34807;51.456;7.244;2023-05-29T04:12:30;15.00;73.70
48998;DHT22;34807;51.456;7.244;2023-05-29T04:14:56;15.00;73.70
48998;DHT22;34807;51.456;7.244;2023-05-29T04:17:22;15.00;73.70
48998;DHT22;34807;51.456;7.244;2023-05-29T04:19:47;15.00;73.70
48998;DHT22;34807;51.456;7.244;2023-05-29T04:22:13;15.00;73.60
48998;DHT22;34807;51.456;7.244;2023-05-29T04:24:39;14.90;73.90
48998;DHT22;34807;51.456;7.244;2023-05-29T04:27:05;14.90;73.70
48998;DHT22;34807;51.456;7.244;2023-05-29T04:29:30;14.90;73.80
48998;DHT22;34807;51.456;7.244;2023-05-29T04:31:56;14.90;73.90
48998;DHT22;34807;51.456;7.244;2023-05-29T04:34:21;14.90;73.80
48998;DHT22;34807;51.456;7.244;2023-05-29T04:36:47;14.90;73.90
48998;DHT22;34807;51.456;7.244;2023-05-29T04:39:13;14.90;74.00
48998;DHT22;34807;51.456;7.244;2023-05-29T04:41:42;14.90;74.10
48998;DHT22;34807;51.456;7.244;2023-05-29T04:44:08;14.80;74.00
48998;DHT22;34807;51.456;7.244;2023-05-29T04:46:36;14.80;74.00
48998;DHT22;34807;51.456;7.244;2023-05-29T04:49:03;14.80;73.80
48998;DHT22;34807;51.456;7.244;2023-05-29T04:51:30;14.80;74.20
48998;DHT22;34807;51.456;7.244;2023-05-29T04:53:56;14.80;74.00
48998;DHT22;34807;51.456;7.244;2023-05-29T04:56:22;14.80;74.20
48998;DHT22;34807;51.456;7.244;2023-05-29T04:58:47;14.80;74.00
48998;DHT22;34807;51.456;7.244;2023-05-29T05:01:13;14.80;74.20
48998;DHT22;34807;51.456;7.244;2023-05-29T05:03:43;14.80;74.20
48998;DHT22;34807;51.456;7.244;2023-05-29T05:06:09;14.80;74.10
48998;DHT22;34807;51.456;7.244;2023-05-29T05:08:34;14.80;73.90
48998;DHT22;34807;51.456;7.244;2023-05-29T05:11:00;14.80;74.00
48998;DHT22;34807;51.456;7.244;2023-05-29T05:13:26;14.80;74.10
48998;DHT22;34807;51.456;7.244;2023-05-29T05:15:52;14.70;74.00
48998;DHT22;34807;51.456;7.244;2023-05-29T05:18:17;14.80;74.10
48998;DHT22;34807;51.456;7.244;2023-05-29T05:20:43;14.80;74.90
48998;DHT22;34807;51.456;7.244;2023-05-29T05:23:09;14.80;74.10
48998;DHT22;34807;51.456;7.244;2023-05-29T05:25:34;14.70;74.00
48998;DHT22;34807;51.456;7.244;2023-05-29T05:28:01;14.70;73.70
48998;DHT22;34807;51.456;7.244;2023-05-29T05:30:26;14.80;73.60
48998;DHT22;34807;51.456;7.244;2023-05-29T05:32:52;14.70;73.70
48998;DHT22;34807;51.456;7.244;2023-05-29T05:35:17;14.70;74.00
48998;DHT22;34807;51.456;7.244;2023-05-29T05:37:43;14.70;73.60
48998;DHT22;34807;51.456;7.244;2023-05-29T05:40:08;14.70;73.60
48998;DHT22;34807;51.456;7.244;2023-05-29T05:42:34;14.70;73.30
48998;DHT22;34807;51.456;7.244;2023-05-29T05:45:00;14.70;73.70
48998;DHT22;34807;51.456;7.244;2023-05-29T05:47:26;14.70;73.60
48998;DHT22;34807;51.456;7.244;2023-05-29T05:49:53;14.70;73.60
48998;DHT22;34807;51.456;7.244;2023-05-29T05:52:18;14.70;73.80
48998;DHT22;34807;51.456;7.244;2023-05-29T05:54:44;14.70;73.70
48998;DHT22;34807;51.456;7.244;2023-05-29T05:57:10;14.70;73.60
48998;DHT22;34807;51.456;7.244;2023-05-29T05:59:35;14.70;73.70
48998;DHT22;34807;51.456;7.244;2023-05-29T06:02:01;14.70;73.60
48998;DHT22;34807;51.456;7.244;2023-05-29T06:04:29;14.70;73.50
48998;DHT22;34807;51.456;7.244;2023-05-29T06:06:54;14.70;73.90
48998;DHT22;34807;51.456;7.244;2023-05-29T06:09:20;14.70;73.60
48998;DHT22;34807;51.456;7.244;2023-05-29T06:11:46;14.80;73.80
48998;DHT22;34807;51.456;7.244;2023-05-29T06:14:11;14.80;73.70
48998;DHT22;34807;51.456;7.244;2023-05-29T06:16:37;14.80;73.60
48998;DHT22;34807;51.456;7.244;2023-05-29T06:19:02;14.80;73.60
48998;DHT22;34807;51.456;7.244;2023-05-29T06:21:29;14.80;73.60
48998;DHT22;34807;51.456;7.244;2023-05-29T06:23:55;14.80;73.70
48998;DHT22;34807;51.456;7.244;2023-05-29T06:26:21;14.70;73.60
48998;DHT22;34807;51.456;7.244;2023-05-29T06:28:46;14.80;73.40
48998;DHT22;34807;51.456;7.244;2023-05-29T06:31:12;14.80;73.40
48998;DHT22;34807;51.456;7.244;2023-05-29T06:33:37;14.80;73.60
48998;DHT22;34807;51.456;7.244;2023-05-29T06:36:03;14.80;73.60
48998;DHT22;34807;51.456;7.244;2023-05-29T06:38:28;14.80;73.60
48998;DHT22;34807;51.456;7.244;2023-05-29T06:40:54;14.80;73.60
48998;DHT22;34807;51.456;7.244;2023-05-29T06:43:19;14.80;73.60
48998;DHT22;34807;51.456;7.244;2023-05-29T06:45:45;14.80;73.60
48998;DHT22;34807;51.456;7.244;2023-05-29T06:48:10;14.90;73.60
48998;DHT22;34807;51.456;7.244;2023-05-29T06:50:36;14.90;73.60
48998;DHT22;34807;51.456;7.244;2023-05-29T06:53:01;14.90;73.50
48998;DHT22;34807;51.456;7.244;2023-05-29T06:55:27;14.90;73.50
48998;DHT22;34807;51.456;7.244;2023-05-29T06:57:52;14.90;73.40
48998;DHT22;34807;51.456;7.244;2023-05-29T07:00:18;14.90;73.40
48998;DHT22;34807;51.456;7.244;2023-05-29T07:02:44;14.90;73.50
48998;DHT22;34807;51.456;7.244;2023-05-29T07:05:09;14.90;73.60
48998;DHT22;34807;51.456;7.244;2023-05-29T07:07:35;15.00;73.60
48998;DHT22;34807;51.456;7.244;2023-05-29T07:10:00;15.00;73.50
48998;DHT22;34807;51.456;7.244;2023-05-29T07:12:26;15.00;73.40
48998;DHT22;34807;51.456;7.244;2023-05-29T07:14:52;15.00;73.30
48998;DHT22;34807;51.456;7.244;2023-05-29T07:17:17;15.00;73.40
48998;DHT22;34807;51.456;7.244;2023-05-29T07:19:43;15.00;73.50
48998;DHT22;34807;51.456;7.244;2023-05-29T07:22:08;15.00;73.30
48998;DHT22;34807;51.456;7.244;2023-05-29T07:24:34;15.00;73.50
48998;DHT22;34807;51.456;7.244;2023-05-29T07:26:59;15.00;73.40
48998;DHT22;34807;51.456;7.244;2023-05-29T07:29:25;15.10;73.50
48998;DHT22;34807;51.456;7.244;2023-05-29T07:31:51;15.10;73.40
48998;DHT22;34807;51.456;7.244;2023-05-29T07:34:16;15.10;73.40
48998;DHT22;34807;51.456;7.244;2023-05-29T07:39:40;15.10;73.40
48998;DHT22;34807;51.456;7.244;2023-05-29T07:42:06;15.10;73.40
48998;DHT22;34807;51.456;7.244;2023-05-29T07:44:32;15.20;73.40
48998;DHT22;34807;51.456;7.244;2023-05-29T07:46:57;15.20;73.30
48998;DHT22;34807;51.456;7.244;2023-05-29T07:49:23;15.20;73.20
48998;DHT22;34807;51.456;7.244;2023-05-29T07:51:48;15.20;73.30
48998;DHT22;34807;51.456;7.244;2023-05-29T07:54:14;15.30;73.20
48998;DHT22;34807;51.456;7.244;2023-05-29T07:56:42;15.30;73.10
48998;DHT22;34807;51.456;7.244;2023-05-29T07:59:09;15.30;73.10
48998;DHT22;34807;51.456;7.244;2023-05-29T08:01:35;15.30;73.10
48998;DHT22;34807;51.456;7.244;2023-05-29T08:04:00;15.40;73.10
48998;DHT22;34807;51.456;7.244;2023-05-29T08:06:26;15.40;73.70
48998;DHT22;34807;51.456;7.244;2023-05-29T08:08:51;15.40;73.00
48998;DHT22;34807;51.456;7.244;2023-05-29T08:11:17;15.50;73.00
48998;DHT22;34807;51.456;7.244;2023-05-29T08:13:43;15.50;72.90
48998;DHT22;34807;51.456;7.244;2023-05-29T08:16:09;15.50;72.90
48998;DHT22;34807;51.456;7.244;2023-05-29T08:18:34;15.60;73.00
48998;DHT22;34807;51.456;7.244;2023-05-29T08:21:00;15.60;73.00
48998;DHT22;34807;51.456;7.244;2023-05-29T08:23:26;15.60;72.90
48998;DHT22;34807;51.456;7.244;2023-05-29T08:25:51;15.60;72.90
48998;DHT22;34807;51.456;7.244;2023-05-29T08:28:17;15.70;72.90
48998;DHT22;34807;51.456;7.244;2023-05-29T08:30:42;15.70;72.90
48998;DHT22;34807;51.456;7.244;2023-05-29T08:33:08;15.70;72.80
48998;DHT22;34807;51.456;7.244;2023-05-29T08:35:33;15.80;72.80
48998;DHT22;34807;51.456;7.244;2023-05-29T08:37:59;15.80;72.80
48998;DHT22;34807;51.456;7.244;2023-05-29T08:40:25;15.80;72.60
48998;DHT22;34807;51.456;7.244;2023-05-29T08:42:53;15.90;72.70
48998;DHT22;34807;51.456;7.244;2023-05-29T08:45:21;15.90;72.60
48998;DHT22;34807;51.456;7.244;2023-05-29T08:47:49;15.90;72.60
48998;DHT22;34807;51.456;7.244;2023-05-29T08:50:16;15.90;72.50
48998;DHT22;34807;51.456;7.244;2023-05-29T08:52:42;16.00;72.50
48998;DHT22;34807;51.456;7.244;2023-05-29T08:55:08;16.00;72.30
48998;DHT22;34807;51.456;7.244;2023-05-29T08:57:34;16.10;72.20
48998;DHT22;34807;51.456;7.244;2023-05-29T09:00:02;16.10;72.20
48998;DHT22;34807;51.456;7.244;2023-05-29T09:02:34;16.20;72.20
48998;DHT22;34807;51.456;7.244;2023-05-29T09:05:01;16.20;72.20
48998;DHT22;34807;51.456;7.244;2023-05-29T09:07:26;16.20;72.10
48998;DHT22;34807;51.456;7.244;2023-05-29T09:09:52;16.30;72.20
48998;DHT22;34807;51.456;7.244;2023-05-29T09:12:18;16.30;72.00
48998;DHT22;34807;51.456;7.244;2023-05-29T09:14:44;16.40;72.00
48998;DHT22;34807;51.456;7.244;2023-05-29T09:17:11;16.40;72.00
48998;DHT22;34807;51.456;7.244;2023-05-29T09:19:37;16.50;71.90
48998;DHT22;34807;51.456;7.244;2023-05-29T09:22:04;16.50;72.00
48998;DHT22;34807;51.456;7.244;2023-05-29T09:24:34;16.60;71.80
48998;DHT22;34807;51.456;7.244;2023-05-29T09:27:00;16.60;71.90
48998;DHT22;34807;51.456;7.244;2023-05-29T09:29:26;16.70;71.80
48998;DHT22;34807;51.456;7.244;2023-05-29T09:31:52;16.70;71.70
48998;DHT22;34807;51.456;7.244;2023-05-29T09:34:17;16.80;71.70
48998;DHT22;34807;51.456;7.244;2023-05-29T09:36:43;16.80;71.60
48998;DHT22;34807;51.456;7.244;2023-05-29T09:39:08;16.90;71.50
48998;DHT22;34807;51.456;7.244;2023-05-29T09:41:43;16.90;71.50
48998;DHT22;34807;51.456;7.244;2023-05-29T09:44:10;17.00;71.50
48998;DHT22;34807;51.456;7.244;2023-05-29T09:46:38;17.00;71.40
48998;DHT22;34807;51.456;7.244;2023-05-29T09:49:08;17.00;71.30
48998;DHT22;34807;51.456;7.244;2023-05-29T09:51:33;17.10;71.30
48998;DHT22;34807;51.456;7.244;2023-05-29T09:53:59;17.10;71.30
48998;DHT22;34807;51.456;7.244;2023-05-29T09:56:26;17.20;71.20
48998;DHT22;34807;51.456;7.244;2023-05-29T09:58:53;17.20;71.10
48998;DHT22;34807;51.456;7.244;2023-05-29T10:01:18;17.30;71.30
48998;DHT22;34807;51.456;7.244;2023-05-29T10:03:44;17.30;71.80
48998;DHT22;34807;51.456;7.244;2023-05-29T10:06:10;17.40;71.00
48998;DHT22;34807;51.456;7.244;2023-05-29T10:08:37;17.50;71.00
48998;DHT22;34807;51.456;7.244;2023-05-29T10:11:04;17.50;70.90
48998;DHT22;34807;51.456;7.244;2023-05-29T10:13:35;17.60;70.80
48998;DHT22;34807;51.456;7.244;2023-05-29T10:16:03;17.60;70.70
48998;DHT22;34807;51.456;7.244;2023-05-29T10:18:34;17.70;70.60
48998;DHT22;34807;51.456;7.244;2023-05-29T10:21:00;17.80;70.50
48998;DHT22;34807;51.456;7.244;2023-05-29T10:23:26;17.90;70.50
48998;DHT22;34807;51.456;7.244;2023-05-29T10:25:54;17.90;70.40
48998;DHT22;34807;51.456;7.244;2023-05-29T10:28:22;17.90;70.20
48998;DHT22;34807;51.456;7.244;2023-05-29T10:35:53;18.20;70.10
48998;DHT22;34807;51.456;7.244;2023-05-29T10:38:20;18.30;70.20
48998;DHT22;34807;51.456;7.244;2023-05-29T10:40:46;18.40;70.10
48998;DHT22;34807;51.456;7.244;2023-05-29T10:43:30;18.40;70.00
48998;DHT22;34807;51.456;7.244;2023-05-29T10:45:57;18.50;70.00
48998;DHT22;34807;51.456;7.244;2023-05-29T10:50:53;18.70;70.10
48998;DHT22;34807;51.456;7.244;2023-05-29T10:53:22;18.80;70.00
48998;DHT22;34807;51.456;7.244;2023-05-29T10:55:48;18.90;69.90
48998;DHT22;34807;51.456;7.244;2023-05-29T10:58:19;18.90;69.80
48998;DHT22;34807;51.456;7.244;2023-05-29T11:00:45;19.00;69.60
48998;DHT22;34807;51.456;7.244;2023-05-29T11:03:14;19.20;69.50
48998;DHT22;34807;51.456;7.244;2023-05-29T11:09:07;19.30;69.20
48998;DHT22;34807;51.456;7.244;2023-05-29T11:11:14;19.40;69.20
48998;DHT22;34807;51.456;7.244;2023-05-29T11:13:40;19.50;69.20
48998;DHT22;34807;51.456;7.244;2023-05-29T11:18:41;19.70;69.10
48998;DHT22;34807;51.456;7.244;2023-05-29T11:21:08;19.80;69.10
48998;DHT22;34807;51.456;7.244;2023-05-29T11:23:38;19.80;68.90
48998;DHT22;34807;51.456;7.244;2023-05-29T11:26:06;19.90;68.80
48998;DHT22;34807;51.456;7.244;2023-05-29T11:28:32;20.00;68.60
48998;DHT22;34807;51.456;7.244;2023-05-29T11:30:57;20.00;68.40
48998;DHT22;34807;51.456;7.244;2023-05-29T11:33:26;20.10;68.30
48998;DHT22;34807;51.456;7.244;2023-05-29T11:35:59;20.20;68.50
48998;DHT22;34807;51.456;7.244;2023-05-29T11:38:26;20.30;68.30
48998;DHT22;34807;51.456;7.244;2023-05-29T11:40:52;20.30;68.20
48998;DHT22;34807;51.456;7.244;2023-05-29T11:43:18;20.40;68.20
48998;DHT22;34807;51.456;7.244;2023-05-29T11:45:44;20.50;68.20
48998;DHT22;34807;51.456;7.244;2023-05-29T11:48:10;20.50;68.20
48998;DHT22;34807;51.456;7.244;2023-05-29T11:50:36;20.60;68.20
48998;DHT22;34807;51.456;7.244;2023-05-29T11:53:01;20.60;68.10
48998;DHT22;34807;51.456;7.244;2023-05-29T11:55:27;20.70;68.20
48998;DHT22;34807;51.456;7.244;2023-05-29T11:58:02;20.70;68.10
48998;DHT22;34807;51.456;7.244;2023-05-29T12:00:32;20.80;68.20
48998;DHT22;34807;51.456;7.244;2023-05-29T12:03:01;20.80;68.00
48998;DHT22;34807;51.456;7.244;2023-05-29T12:05:29;20.90;68.10
48998;DHT22;34807;51.456;7.244;2023-05-29T12:07:54;20.90;68.20
48998;DHT22;34807;51.456;7.244;2023-05-29T12:10:25;21.00;68.20
48998;DHT22;34807;51.456;7.244;2023-05-29T12:12:52;21.10;68.00
48998;DHT22;34807;51.456;7.244;2023-05-29T12:15:18;21.10;67.90
48998;DHT22;34807;51.456;7.244;2023-05-29T12:17:44;21.20;68.00
48998;DHT22;34807;51.456;7.244;2023-05-29T12:20:10;21.20;68.50
48998;DHT22;34807;51.456;7.244;2023-05-29T12:22:37;21.30;67.80
48998;DHT22;34807;51.456;7.244;2023-05-29T12:25:09;21.40;67.80
48998;DHT22;34807;51.456;7.244;2023-05-29T12:27:37;21.40;67.80
48998;DHT22;34807;51.456;7.244;2023-05-29T12:30:10;21.50;67.90
48998;DHT22;34807;51.456;7.244;2023-05-29T12:35:09;21.60;67.60
48998;DHT22;34807;51.456;7.244;2023-05-29T12:37:35;21.70;67.50
48998;DHT22;34807;51.456;7.244;2023-05-29T12:42:56;21.80;67.20
48998;DHT22;34807;51.456;7.244;2023-05-29T12:45:26;21.90;67.30
48998;DHT22;34807;51.456;7.244;2023-05-29T12:47:55;21.90;67.60
48998;DHT22;34807;51.456;7.244;2023-05-29T12:52:55;22.00;66.90
48998;DHT22;34807;51.456;7.244;2023-05-29T12:55:21;22.10;67.00
48998;DHT22;34807;51.456;7.244;2023-05-29T12:57:46;22.10;67.00
48998;DHT22;34807;51.456;7.244;2023-05-29T13:00:12;22.20;66.90
48998;DHT22;34807;51.456;7.244;2023-05-29T13:02:38;22.30;66.90
48998;DHT22;34807;51.456;7.244;2023-05-29T13:05:04;22.30;66.90
48998;DHT22;34807;51.456;7.244;2023-05-29T13:07:31;22.40;67.00
48998;DHT22;34807;51.456;7.244;2023-05-29T13:09:56;22.40;66.70
48998;DHT22;34807;51.456;7.244;2023-05-29T13:12:22;22.50;66.60
48998;DHT22;34807;51.456;7.244;2023-05-29T13:14:47;22.50;66.80
48998;DHT22;34807;51.456;7.244;2023-05-29T13:17:13;22.60;66.60
48998;DHT22;34807;51.456;7.244;2023-05-29T13:19:38;22.60;66.70
48998;DHT22;34807;51.456;7.244;2023-05-29T13:22:04;22.70;66.50
48998;DHT22;34807;51.456;7.244;2023-05-29T13:24:30;22.70;66.70
48998;DHT22;34807;51.456;7.244;2023-05-29T13:26:55;22.70;66.40
48998;DHT22;34807;51.456;7.244;2023-05-29T13:29:22;22.80;66.40
48998;DHT22;34807;51.456;7.244;2023-05-29T13:31:48;22.80;66.40
48998;DHT22;34807;51.456;7.244;2023-05-29T13:34:13;22.80;66.40
48998;DHT22;34807;51.456;7.244;2023-05-29T13:36:39;22.80;66.20
48998;DHT22;34807;51.456;7.244;2023-05-29T13:39:05;22.90;66.20
48998;DHT22;34807;51.456;7.244;2023-05-29T13:41:31;22.90;66.50
48998;DHT22;34807;51.456;7.244;2023-05-29T13:43:57;22.90;66.10
48998;DHT22;34807;51.456;7.244;2023-05-29T13:46:22;23.00;65.90
48998;DHT22;34807;51.456;7.244;2023-05-29T13:48:48;23.00;65.90
48998;DHT22;34807;51.456;7.244;2023-05-29T13:51:13;23.10;65.80
48998;DHT22;34807;51.456;7.244;2023-05-29T13:53:39;23.20;65.50
48998;DHT22;34807;51.456;7.244;2023-05-29T13:56:04;23.20;65.40
48998;DHT22;34807;51.456;7.244;2023-05-29T13:58:30;23.30;65.90
48998;DHT22;34807;51.456;7.244;2023-05-29T14:00:56;23.30;65.70
48998;DHT22;34807;51.456;7.244;2023-05-29T14:03:21;23.40;65.40
48998;DHT22;34807;51.456;7.244;2023-05-29T14:05:49;23.40;65.40
48998;DHT22;34807;51.456;7.244;2023-05-29T14:08:14;23.40;65.40
48998;DHT22;34807;51.456;7.244;2023-05-29T14:10:40;23.40;65.30
48998;DHT22;34807;51.456;7.244;2023-05-29T14:13:06;23.50;65.40
48998;DHT22;34807;51.456;7.244;2023-05-29T14:15:31;23.50;66.00
48998;DHT22;34807;51.456;7.244;2023-05-29T14:17:57;23.50;65.30
48998;DHT22;34807;51.456;7.244;2023-05-29T14:20:22;23.50;64.90
48998;DHT22;34807;51.456;7.244;2023-05-29T14:22:48;23.60;64.80
48998;DHT22;34807;51.456;7.244;2023-05-29T14:25:13;23.50;65.00
48998;DHT22;34807;51.456;7.244;2023-05-29T14:27:39;23.50;65.10
48998;DHT22;34807;51.456;7.244;2023-05-29T14:30:04;23.50;64.40
48998;DHT22;34807;51.456;7.244;2023-05-29T14:32:30;23.50;64.50
48998;DHT22;34807;51.456;7.244;2023-05-29T14:34:56;23.50;64.50
48998;DHT22;34807;51.456;7.244;2023-05-29T14:37:23;23.50;64.50
48998;DHT22;34807;51.456;7.244;2023-05-29T14:39:48;23.50;64.20
48998;DHT22;34807;51.456;7.244;2023-05-29T14:42:14;23.50;63.90
48998;DHT22;34807;51.456;7.244;2023-05-29T14:44:41;23.60;63.90
48998;DHT22;34807;51.456;7.244;2023-05-29T14:47:07;23.70;63.40
48998;DHT22;34807;51.456;7.244;2023-05-29T14:49:32;23.70;63.50
48998;DHT22;34807;51.456;7.244;2023-05-29T14:51:59;23.80;63.80
48998;DHT22;34807;51.456;7.244;2023-05-29T14:54:24;23.90;63.70
48998;DHT22;34807;51.456;7.244;2023-05-29T14:56:50;23.90;63.60
48998;DHT22;34807;51.456;7.244;2023-05-29T14:59:16;24.00;63.30
48998;DHT22;34807;51.456;7.244;2023-05-29T15:01:41;24.10;63.40
48998;DHT22;34807;51.456;7.244;2023-05-29T15:04:07;24.30;63.00
48998;DHT22;34807;51.456;7.244;2023-05-29T15:06:32;24.40;63.00
48998;DHT22;34807;51.456;7.244;2023-05-29T15:09:01;24.70;62.50
48998;DHT22;34807;51.456;7.244;2023-05-29T15:11:30;24.80;62.10
48998;DHT22;34807;51.456;7.244;2023-05-29T15:13:58;25.00;61.70
48998;DHT22;34807;51.456;7.244;2023-05-29T15:16:24;25.20;61.40
48998;DHT22;34807;51.456;7.244;2023-05-29T15:18:50;25.30;61.20
48998;DHT22;34807;51.456;7.244;2023-05-29T15:21:15;25.50;60.80
48998;DHT22;34807;51.456;7.244;2023-05-29T15:23:41;25.70;60.50
48998;DHT22;34807;51.456;7.244;2023-05-29T15:26:08;26.00;60.20
48998;DHT22;34807;51.456;7.244;2023-05-29T15:28:34;26.30;59.90
48998;DHT22;34807;51.456;7.244;2023-05-29T15:31:00;26.50;59.50
48998;DHT22;34807;51.456;7.244;2023-05-29T15:33:25;26.70;59.20
48998;DHT22;34807;51.456;7.244;2023-05-29T15:35:51;26.90;59.10
48998;DHT22;34807;51.456;7.244;2023-05-29T15:38:16;27.20;58.60
48998;DHT22;34807;51.456;7.244;2023-05-29T15:40:42;27.40;58.60
48998;DHT22;34807;51.456;7.244;2023-05-29T15:43:08;27.50;58.30
48998;DHT22;34807;51.456;7.244;2023-05-29T15:45:35;27.70;58.00
48998;DHT22;34807;51.456;7.244;2023-05-29T15:48:00;27.80;57.80
48998;DHT22;34807;51.456;7.244;2023-05-29T15:50:26;28.00;57.80